map of SLI home
Great Circle Mapper logo
SLI - Airport
Location
City:  Solwezi, Zambia
ICAO / IATA:FLSW / SLI

Details
Type:Airport (Aerodrome, Airfield)
Latitude:1210'S (-12.167)
Longitude:2622'E (26.367)
Elevation:4547 ft (1386 m)
Variation:2.9W (WMM2010 magnetic declination)
Runways:unknown number
Longest:4400 ft (1341 m)

Time
Time Zone:UTC+2
Local Time:

Weather
TAF:FLSW 271000Z 2712/2818 35005KT 9999 SCT030 PROB30
TEMPO 2800/2802 9000 RA FEW030CB PROB40
TEMPO 2811/2814 7000 TSRA FEW035CB

Related Locations
Nearby:
Farthest:ITO: 11903 mi / 19155 km
Hilo [Hilo Intl], Hawaii, HI, US

Find:

   beyond  
but within

Other Information
Maps:
NOTAMs:
Links:
Sources:

  
flag of Zambia   

Sectional Chart

Flight Planning
at skyvector.com

Satellite Image

Google Maps Satellite View

 

Copyright © 2004-2014 Karl L. Swartz. All rights reserved.
The Great Circle Mapper name and logo are trademarks of the Great Circle Mapper.
All other trademarks mentioned herein belong to their respective owners.
Please see credits for attibutions and further copyright information.

  Follow gcmap on Facebook Follow gcmap on Twitter

hCard Microformat

Geo Microformat